createdAt,value
2018-09-21T00:04:39.328Z,54.74
2018-09-21T00:09:31.942Z,55.07
2018-09-21T00:14:24.518Z,55.03
2018-09-21T00:19:17.103Z,55.95
2018-09-21T00:24:09.740Z,56.20
2018-09-21T00:29:02.348Z,55.67
2018-09-21T00:33:54.936Z,56.07
2018-09-21T00:38:47.571Z,56.55
2018-09-21T00:43:40.179Z,55.96
2018-09-21T00:48:32.751Z,56.17
2018-09-21T00:53:25.359Z,56.28
2018-09-21T00:58:17.968Z,56.03
2018-09-21T01:03:10.541Z,55.98
2018-09-21T01:08:03.267Z,56.58
2018-09-21T01:12:55.871Z,55.71
2018-09-21T01:17:48.490Z,55.63
2018-09-21T01:22:41.119Z,56.33
2018-09-21T01:27:33.658Z,55.94
2018-09-21T01:32:26.210Z,55.73
2018-09-21T01:37:18.726Z,55.68
2018-09-21T01:42:11.278Z,55.08
2018-09-21T01:47:04.074Z,54.68
2018-09-21T01:51:56.654Z,53.71
2018-09-21T01:56:49.241Z,53.44
2018-09-21T02:01:41.791Z,54.07
2018-09-21T02:06:34.351Z,53.66
2018-09-21T02:11:27.091Z,53.67
2018-09-21T02:16:19.860Z,53.61
2018-09-21T02:21:12.471Z,53.77
2018-09-21T02:26:05.057Z,53.55
2018-09-21T02:30:57.611Z,53.94
2018-09-21T02:35:50.200Z,53.96
2018-09-21T02:40:42.915Z,54.49
2018-09-21T02:45:35.474Z,54.54
2018-09-21T02:50:28.065Z,54.63
2018-09-21T02:55:20.620Z,54.76
2018-09-21T03:00:13.346Z,54.46
2018-09-21T03:05:05.948Z,54.85
2018-09-21T03:09:58.644Z,54.72
2018-09-21T03:14:51.274Z,54.89
2018-09-21T03:19:43.920Z,54.76
2018-09-21T03:24:36.516Z,55.16
2018-09-21T03:29:29.258Z,56.04
2018-09-21T03:34:21.805Z,56.07
2018-09-21T03:39:14.416Z,55.81
2018-09-21T03:44:07.120Z,55.96
2018-09-21T03:48:59.707Z,56.21
2018-09-21T03:53:52.412Z,56.77
2018-09-21T03:58:45.018Z,57.13
2018-09-21T04:03:37.660Z,57.57
2018-09-21T04:08:30.337Z,57.75
2018-09-21T04:13:22.976Z,57.97
2018-09-21T04:18:15.744Z,57.60
2018-09-21T04:23:08.430Z,58.25
2018-09-21T04:28:01.007Z,58.54
2018-09-21T04:32:53.643Z,58.28
2018-09-21T04:37:46.332Z,58.59
2018-09-21T04:42:39.250Z,58.69
2018-09-21T04:47:32.936Z,58.45
2018-09-21T04:52:25.558Z,58.51
2018-09-21T04:57:18.166Z,59.26
2018-09-21T05:02:10.744Z,58.73
2018-09-21T05:07:03.387Z,59.14
2018-09-21T05:11:55.985Z,59.27
2018-09-21T05:16:48.626Z,58.73
2018-09-21T05:21:41.388Z,59.65
2018-09-21T05:26:34.009Z,59.09
2018-09-21T05:31:26.846Z,58.89
2018-09-21T05:36:19.559Z,59.44
2018-09-21T05:41:12.102Z,58.82
2018-09-21T05:46:04.670Z,58.88
2018-09-21T05:50:57.211Z,58.36
2018-09-21T05:55:49.790Z,58.69
2018-09-21T06:00:42.426Z,58.20
2018-09-21T06:05:35.254Z,58.63
2018-09-21T06:10:27.955Z,57.81
2018-09-21T06:15:20.646Z,57.56
2018-09-21T06:20:13.256Z,57.91
2018-09-21T06:25:06.558Z,57.62
2018-09-21T06:29:59.167Z,56.70
2018-09-21T06:34:51.919Z,56.69
2018-09-21T06:39:44.507Z,56.08
2018-09-21T06:44:37.056Z,56.38
2018-09-21T06:54:28.864Z,55.03
2018-09-21T06:59:21.522Z,54.28
2018-09-21T07:04:14.099Z,53.90
2018-09-21T07:09:10.891Z,54.13
2018-09-21T07:14:03.503Z,53.48
2018-09-21T07:18:56.179Z,53.42
2018-09-21T07:23:48.835Z,52.98
2018-09-21T07:28:41.495Z,52.66
2018-09-21T07:33:34.093Z,52.40
2018-09-21T07:38:26.775Z,52.38
2018-09-21T07:43:19.398Z,52.39
2018-09-21T07:48:12.196Z,52.52
2018-09-21T07:53:05.091Z,51.33
2018-09-21T07:57:57.719Z,50.39
2018-09-21T08:02:50.471Z,49.64
2018-09-21T08:07:43.116Z,48.37
2018-09-21T08:12:35.751Z,48.18
2018-09-21T08:17:28.423Z,47.51
2018-09-21T08:22:21.039Z,47.34
2018-09-21T08:27:15.467Z,46.22
2018-09-21T08:32:08.128Z,45.61
2018-09-21T08:37:00.848Z,45.27
2018-09-21T08:41:53.469Z,44.72
2018-09-21T08:46:45.976Z,43.88
2018-09-21T08:51:38.549Z,43.31
2018-09-21T08:56:32.215Z,42.34
2018-09-21T09:01:24.795Z,41.57
2018-09-21T09:06:17.476Z,42.04
2018-09-21T09:11:10.104Z,41.45
2018-09-21T09:16:02.796Z,40.94
2018-09-21T09:20:55.384Z,40.84
2018-09-21T09:25:48.058Z,40.10
2018-09-21T09:30:40.629Z,39.72
2018-09-21T09:35:33.312Z,38.60
2018-09-21T09:40:25.987Z,38.67
2018-09-21T09:45:18.599Z,38.41
2018-09-21T09:50:11.374Z,37.82
2018-09-21T09:55:04.175Z,37.07
2018-09-21T09:59:56.828Z,38.13
2018-09-21T10:04:49.691Z,37.57
2018-09-21T10:09:42.319Z,36.81
2018-09-21T10:14:34.891Z,37.36
2018-09-21T10:19:27.587Z,36.86
2018-09-21T10:24:20.363Z,35.64
2018-09-21T10:29:12.924Z,36.70
2018-09-21T10:34:05.645Z,35.27
2018-09-21T10:38:58.377Z,35.57
2018-09-21T10:43:50.922Z,34.89
2018-09-21T10:48:43.637Z,33.99
2018-09-21T10:53:36.720Z,34.14
2018-09-21T10:58:29.327Z,33.85
2018-09-21T11:03:21.965Z,34.21
2018-09-21T11:08:14.470Z,34.21
2018-09-21T11:13:07.091Z,34.20
2018-09-21T11:17:59.679Z,33.89
2018-09-21T11:22:52.308Z,33.45
2018-09-21T11:27:44.898Z,32.69
2018-09-21T11:32:37.504Z,33.09
2018-09-21T11:37:30.193Z,32.56
2018-09-21T11:42:22.797Z,33.12
2018-09-21T11:47:15.460Z,33.68
2018-09-21T11:52:08.106Z,32.98
2018-09-21T11:57:07.527Z,32.42
2018-09-21T12:02:00.199Z,33.27
2018-09-21T12:06:52.815Z,32.35
2018-09-21T12:11:45.520Z,32.93
2018-09-21T12:16:38.172Z,32.26
2018-09-21T12:21:30.995Z,32.28
2018-09-21T12:26:23.557Z,33.08
2018-09-21T12:31:16.176Z,32.74
2018-09-21T12:36:08.884Z,33.16
2018-09-21T12:41:01.522Z,32.94
2018-09-21T12:45:54.101Z,33.14
2018-09-21T12:50:46.887Z,32.78
2018-09-21T12:55:39.471Z,32.38
2018-09-21T13:00:37.922Z,32.60
2018-09-21T13:05:30.609Z,33.44
2018-09-21T13:10:23.314Z,33.85
2018-09-21T13:15:16.153Z,33.30
2018-09-21T13:20:08.777Z,32.97
2018-09-21T13:25:01.404Z,33.13
2018-09-21T13:29:54.066Z,33.08
2018-09-21T13:34:46.949Z,33.51
2018-09-21T13:39:39.514Z,33.44
2018-09-21T13:44:32.182Z,33.06
2018-09-21T13:49:24.691Z,33.54
2018-09-21T13:54:17.340Z,33.33
2018-09-21T13:59:10.040Z,33.78
2018-09-21T14:04:02.654Z,35.11
2018-09-21T14:08:55.258Z,34.39
2018-09-21T14:13:48.130Z,34.66
2018-09-21T14:18:40.772Z,35.81
2018-09-21T14:23:33.324Z,35.16
2018-09-21T14:28:25.884Z,35.50
2018-09-21T14:33:18.629Z,35.54
2018-09-21T14:38:11.293Z,36.82
2018-09-21T14:43:03.902Z,41.11
2018-09-21T14:47:56.524Z,46.32
2018-09-21T14:52:49.107Z,47.79
2018-09-21T14:57:41.705Z,47.80
2018-09-21T15:02:34.379Z,48.08
2018-09-21T15:07:26.930Z,47.40
2018-09-21T15:12:19.767Z,48.94
2018-09-21T15:17:12.359Z,49.60
2018-09-21T15:22:05.320Z,50.64
2018-09-21T15:26:57.992Z,50.08
2018-09-21T15:31:50.579Z,51.29
2018-09-21T15:36:43.188Z,49.78
2018-09-21T15:41:35.836Z,49.79
2018-09-21T15:46:28.465Z,49.17
2018-09-21T15:51:21.182Z,50.16
2018-09-21T15:56:13.744Z,50.34
2018-09-21T16:01:07.583Z,51.17
2018-09-21T16:06:00.239Z,51.33
2018-09-21T16:10:53.321Z,52.99
2018-09-21T16:15:45.964Z,53.77
2018-09-21T16:20:38.715Z,54.21
2018-09-21T16:25:31.399Z,54.45
2018-09-21T16:30:24.041Z,55.17
2018-09-21T16:35:17.100Z,56.50
2018-09-21T16:40:09.732Z,57.13
2018-09-21T16:45:02.407Z,57.56
2018-09-21T16:49:55.188Z,57.93
2018-09-21T16:54:47.738Z,57.58
2018-09-21T16:59:40.339Z,59.32
2018-09-21T17:04:33.194Z,60.20
2018-09-21T17:09:25.611Z,59.88
2018-09-21T17:14:18.161Z,60.07
2018-09-21T17:19:10.886Z,60.48
2018-09-21T17:24:03.634Z,61.17
2018-09-21T17:28:56.269Z,60.45
2018-09-21T17:33:48.864Z,62.01
2018-09-21T17:38:41.518Z,62.58
2018-09-21T17:43:34.198Z,64.35
2018-09-21T17:48:26.796Z,65.20
2018-09-21T17:53:19.338Z,65.90
2018-09-21T17:58:11.940Z,66.41
2018-09-21T18:03:04.583Z,67.35
2018-09-21T18:07:57.308Z,68.39
2018-09-21T18:12:49.911Z,67.85
2018-09-21T18:17:42.558Z,69.55
2018-09-21T18:22:35.191Z,69.60
2018-09-21T18:27:27.872Z,70.03
2018-09-21T18:32:20.423Z,69.56
2018-09-21T18:37:13.053Z,69.80
2018-09-21T18:42:05.670Z,69.71
2018-09-21T18:46:58.416Z,70.59
2018-09-21T18:51:51.046Z,70.33
2018-09-21T18:56:44.071Z,70.39
2018-09-21T19:01:36.736Z,71.71
2018-09-21T19:06:29.355Z,72.29
2018-09-21T19:11:22.032Z,72.58
2018-09-21T19:16:14.866Z,71.53
2018-09-21T19:21:07.536Z,72.86
2018-09-21T19:26:00.116Z,72.01
2018-09-21T19:30:52.688Z,72.80
2018-09-21T19:35:45.276Z,72.76
2018-09-21T19:40:37.937Z,72.33
2018-09-21T19:45:30.589Z,72.88
2018-09-21T19:50:23.234Z,72.76
2018-09-21T19:55:15.860Z,73.35
2018-09-21T20:00:08.449Z,72.95
2018-09-21T20:05:01.219Z,73.00
2018-09-21T20:09:53.762Z,73.21
2018-09-21T20:14:46.376Z,72.86
2018-09-21T20:19:39.011Z,72.06
2018-09-21T20:24:31.676Z,71.71
2018-09-21T20:29:24.230Z,72.40
2018-09-21T20:34:16.908Z,71.15
2018-09-21T20:39:09.470Z,71.28
2018-09-21T20:44:02.251Z,71.31
2018-09-21T20:48:54.840Z,71.19
2018-09-21T20:53:47.410Z,71.63
2018-09-21T20:58:39.993Z,71.49
2018-09-21T21:03:32.563Z,71.56
2018-09-21T21:08:25.218Z,70.84
2018-09-21T21:13:17.858Z,70.76
2018-09-21T21:18:11.181Z,70.14
2018-09-21T21:23:03.939Z,69.34
2018-09-21T21:27:56.507Z,69.32
2018-09-21T21:32:49.182Z,69.33
2018-09-21T21:37:41.809Z,70.17
2018-09-21T21:42:34.405Z,69.34
2018-09-21T21:47:27.197Z,69.62
2018-09-21T21:52:19.755Z,68.91
2018-09-21T21:57:12.586Z,68.97
2018-09-21T22:02:09.538Z,68.29
2018-09-21T22:07:02.161Z,67.72
2018-09-21T22:12:00.566Z,67.26
2018-09-21T22:16:53.327Z,66.04
2018-09-21T22:21:45.946Z,65.26
2018-09-21T22:26:38.513Z,64.61
2018-09-21T22:31:31.383Z,63.47
2018-09-21T22:36:23.963Z,63.73
2018-09-21T22:41:17.025Z,63.63
2018-09-21T22:46:09.572Z,63.65
2018-09-21T22:51:02.144Z,63.30
2018-09-21T22:55:54.709Z,62.68
2018-09-21T23:00:47.286Z,62.32
2018-09-21T23:05:39.917Z,61.18
2018-09-21T23:10:32.492Z,61.57
2018-09-21T23:15:25.066Z,61.74
2018-09-21T23:20:17.670Z,62.06
2018-09-21T23:25:10.275Z,62.18
2018-09-21T23:30:02.920Z,62.81
2018-09-21T23:34:55.508Z,61.88
2018-09-21T23:39:48.111Z,62.20
2018-09-21T23:44:40.751Z,62.34
2018-09-21T23:49:33.337Z,62.26
2018-09-21T23:54:25.875Z,62.56
2018-09-21T23:59:19.069Z,62.12
